createdAt,value
2022-08-17T00:01:30.062Z,11.38
2022-08-17T00:04:09.328Z,12.48
2022-08-17T00:06:38.333Z,8.48
2022-08-17T00:09:05.654Z,10.95
2022-08-17T00:11:36.497Z,11.30
2022-08-17T00:14:21.409Z,11.05
2022-08-17T00:16:57.459Z,9.13
2022-08-17T00:19:25.826Z,11.57
2022-08-17T00:22:35.053Z,12.10
2022-08-17T00:24:42.913Z,9.57
2022-08-17T00:27:09.423Z,11.05
2022-08-17T00:29:36.394Z,9.65
2022-08-17T00:33:16.083Z,11.15
2022-08-17T00:34:49.967Z,9.10
2022-08-17T00:37:16.903Z,10.40
2022-08-17T00:39:43.864Z,11.18
2022-08-17T00:42:18.765Z,11.80
2022-08-17T00:44:45.739Z,8.80
2022-08-17T00:47:13.269Z,12.07
2022-08-17T00:49:39.852Z,10.02
2022-08-17T00:52:15.383Z,10.77
2022-08-17T00:54:44.684Z,8.90
2022-08-17T00:57:20.124Z,10.57
2022-08-17T01:00:02.575Z,9.82
2022-08-17T01:02:34.370Z,10.20
2022-08-17T01:05:10.425Z,9.70
2022-08-17T01:07:37.925Z,13.20
2022-08-17T01:10:07.217Z,9.82
2022-08-17T01:12:35.553Z,8.95
2022-08-17T01:15:02.090Z,9.60
2022-08-17T01:17:28.633Z,12.55
2022-08-17T01:19:55.714Z,9.43
2022-08-17T01:22:24.194Z,10.00
2022-08-17T01:24:56.429Z,14.20
2022-08-17T01:27:24.433Z,9.43
2022-08-17T01:29:57.870Z,10.27
2022-08-17T01:34:53.167Z,13.23
2022-08-17T01:37:27.674Z,9.57
2022-08-17T01:40:00.622Z,10.80
2022-08-17T01:42:34.499Z,11.50
2022-08-17T01:45:09.874Z,12.18
2022-08-17T01:47:37.358Z,9.52
2022-08-17T01:50:13.681Z,8.68
2022-08-17T01:52:41.009Z,10.98
2022-08-17T01:55:08.988Z,12.05
2022-08-17T01:57:36.124Z,12.07
2022-08-17T02:00:06.799Z,9.02
2022-08-17T02:02:38.063Z,10.43
2022-08-17T02:05:05.990Z,9.55
2022-08-17T02:07:32.626Z,10.38
2022-08-17T02:10:20.232Z,13.48
2022-08-17T02:12:47.008Z,12.07
2022-08-17T02:15:15.155Z,15.15
2022-08-17T02:17:43.155Z,11.52
2022-08-17T02:20:10.723Z,16.33
2022-08-17T02:22:41.111Z,13.38
2022-08-17T02:25:11.159Z,12.10
2022-08-17T02:27:39.278Z,13.18
2022-08-17T02:31:01.127Z,11.93
2022-08-17T02:32:55.547Z,12.48
2022-08-17T02:35:22.694Z,12.20
2022-08-17T02:37:55.418Z,13.52
2022-08-17T02:40:36.354Z,12.90
2022-08-17T02:43:04.200Z,13.20
2022-08-17T02:45:30.725Z,14.43
2022-08-17T02:47:57.239Z,13.73
2022-08-17T02:50:24.992Z,9.23
2022-08-17T02:53:01.828Z,11.68
2022-08-17T02:55:35.776Z,9.13
2022-08-17T02:58:03.677Z,11.32
2022-08-17T03:00:44.350Z,12.85
2022-08-17T03:03:13.454Z,10.70
2022-08-17T03:05:40.501Z,10.85
2022-08-17T03:08:11.673Z,10.48
2022-08-17T03:10:40.925Z,14.45
2022-08-17T03:13:07.557Z,11.75
2022-08-17T03:15:34.761Z,11.52
2022-08-17T03:18:02.345Z,9.70
2022-08-17T03:20:31.186Z,10.52
2022-08-17T03:23:01.728Z,10.15
2022-08-17T03:25:44.000Z,11.45
2022-08-17T03:28:11.942Z,11.05
2022-08-17T03:30:40.027Z,12.57
2022-08-17T03:33:09.926Z,12.10
2022-08-17T03:35:37.933Z,12.52
2022-08-17T03:38:04.842Z,12.32
2022-08-17T03:40:34.639Z,14.43
2022-08-17T03:43:19.823Z,9.25
2022-08-17T03:46:05.239Z,10.43
2022-08-17T03:48:51.052Z,14.02
2022-08-17T03:51:39.793Z,10.95
2022-08-17T03:54:26.107Z,10.85
2022-08-17T03:57:03.095Z,12.30
2022-08-17T03:59:31.856Z,10.98
2022-08-17T04:02:09.767Z,13.68
2022-08-17T04:04:37.259Z,12.00
2022-08-17T04:07:04.485Z,10.70
2022-08-17T04:09:31.116Z,11.25
2022-08-17T04:11:57.659Z,15.13
2022-08-17T04:14:31.126Z,12.73
2022-08-17T04:16:57.615Z,9.43
2022-08-17T04:19:24.206Z,9.68
2022-08-17T04:21:52.755Z,11.52
2022-08-17T04:24:19.288Z,10.93
2022-08-17T04:26:53.620Z,13.52
2022-08-17T04:29:21.456Z,12.30
2022-08-17T04:31:51.524Z,11.45
2022-08-17T04:34:19.583Z,11.85
2022-08-17T04:36:50.179Z,10.35
2022-08-17T04:39:16.895Z,12.35
2022-08-17T04:42:01.819Z,10.80
2022-08-17T04:44:37.362Z,10.93
2022-08-17T04:47:04.608Z,11.57
2022-08-17T04:49:33.538Z,10.85
2022-08-17T04:52:04.334Z,14.50
2022-08-17T04:54:31.210Z,11.18
2022-08-17T04:56:57.704Z,9.88
2022-08-17T04:59:24.488Z,9.65
2022-08-17T05:01:51.886Z,10.27
2022-08-17T05:04:34.165Z,10.73
2022-08-17T05:07:02.083Z,11.05
2022-08-17T05:09:29.075Z,11.00
2022-08-17T05:11:56.180Z,12.35
2022-08-17T05:14:33.113Z,10.90
2022-08-17T05:17:00.409Z,9.85
2022-08-17T05:19:28.599Z,10.35
2022-08-17T05:21:55.108Z,8.65
2022-08-17T05:24:38.964Z,9.98
2022-08-17T05:27:08.135Z,9.55
2022-08-17T05:29:35.235Z,12.32
2022-08-17T05:32:38.224Z,12.13
2022-08-17T05:35:00.409Z,12.05
2022-08-17T05:37:27.536Z,11.05
2022-08-17T05:39:54.512Z,10.95
2022-08-17T05:42:26.027Z,11.48
2022-08-17T05:44:52.822Z,14.60
2022-08-17T05:47:20.595Z,11.63
2022-08-17T05:49:48.923Z,9.48
2022-08-17T05:52:37.732Z,11.18
2022-08-17T05:55:07.222Z,8.50
2022-08-17T05:57:53.834Z,10.77
2022-08-17T06:00:48.068Z,10.70
2022-08-17T06:03:33.501Z,11.30
2022-08-17T06:06:12.532Z,10.10
2022-08-17T06:08:42.014Z,10.88
2022-08-17T06:11:27.087Z,12.00
2022-08-17T06:14:18.238Z,11.65
2022-08-17T06:16:49.358Z,8.57
2022-08-17T06:19:23.182Z,9.93
2022-08-17T06:21:52.745Z,12.25
2022-08-17T06:24:22.266Z,9.38
2022-08-17T06:26:50.034Z,10.23
2022-08-17T06:29:35.374Z,12.65
2022-08-17T06:32:03.401Z,10.95
2022-08-17T06:34:29.999Z,9.75
2022-08-17T06:37:05.547Z,10.80
2022-08-17T06:39:59.375Z,9.80
2022-08-17T06:43:06.605Z,12.50
2022-08-17T06:45:50.423Z,9.30
2022-08-17T06:48:24.813Z,9.80
2022-08-17T06:51:16.983Z,10.73
2022-08-17T06:53:51.707Z,12.98
2022-08-17T06:56:53.961Z,12.73
2022-08-17T06:59:25.420Z,9.52
2022-08-17T07:01:53.142Z,8.05
2022-08-17T07:04:26.132Z,9.82
2022-08-17T07:06:58.859Z,10.82
2022-08-17T07:09:33.941Z,11.23
2022-08-17T07:12:18.202Z,7.70
2022-08-17T07:14:56.865Z,8.50
2022-08-17T07:17:47.272Z,8.30
2022-08-17T07:20:15.367Z,9.68
2022-08-17T07:23:09.690Z,8.70
2022-08-17T07:25:38.335Z,9.23
2022-08-17T07:28:07.707Z,7.60
2022-08-17T07:30:49.238Z,8.00
2022-08-17T07:33:25.716Z,10.18
2022-08-17T07:35:55.754Z,8.25
2022-08-17T07:38:28.462Z,7.97
2022-08-17T07:40:57.548Z,7.85
2022-08-17T07:43:26.126Z,9.68
2022-08-17T07:46:29.482Z,8.45
2022-08-17T07:49:03.123Z,8.98
2022-08-17T07:51:36.448Z,9.23
2022-08-17T07:54:22.597Z,8.10
2022-08-17T07:56:54.915Z,7.95
2022-08-17T07:59:31.118Z,7.43
2022-08-17T08:02:06.322Z,8.15
2022-08-17T08:05:00.646Z,7.75
2022-08-17T08:07:58.166Z,7.82
2022-08-17T08:10:35.512Z,10.20
2022-08-17T08:13:16.774Z,10.70
2022-08-17T08:15:54.266Z,6.15
2022-08-17T08:18:54.292Z,6.57
2022-08-17T08:21:41.695Z,8.38
2022-08-17T08:24:30.828Z,12.77
2022-08-17T08:27:00.734Z,9.48
2022-08-17T08:29:39.664Z,6.03
2022-08-17T08:32:21.117Z,8.13
2022-08-17T08:35:08.173Z,6.88
2022-08-17T08:38:02.628Z,10.55
2022-08-17T08:40:35.144Z,12.95
2022-08-17T08:43:10.658Z,6.35
2022-08-17T08:46:12.190Z,6.45
2022-08-17T08:49:51.896Z,9.32
2022-08-17T08:52:27.918Z,6.18
2022-08-17T08:55:04.341Z,6.60
2022-08-17T08:57:43.580Z,5.63
2022-08-17T09:00:17.955Z,5.05
2022-08-17T09:03:06.202Z,4.80
2022-08-17T09:05:57.032Z,4.97
2022-08-17T09:08:35.514Z,5.95
2022-08-17T09:11:08.282Z,5.28
2022-08-17T09:14:05.030Z,6.82
2022-08-17T09:16:42.665Z,6.00
2022-08-17T09:19:11.248Z,5.07
2022-08-17T09:21:49.678Z,5.55
2022-08-17T09:24:47.311Z,7.57
2022-08-17T09:27:23.633Z,8.02
2022-08-17T09:29:57.851Z,5.80
2022-08-17T09:32:44.632Z,8.57
2022-08-17T09:35:25.148Z,6.57
2022-08-17T09:38:17.067Z,7.65
2022-08-17T09:40:47.808Z,11.93
2022-08-17T09:43:32.169Z,8.73
2022-08-17T09:46:03.754Z,6.90
2022-08-17T09:48:37.773Z,6.97
2022-08-17T09:51:15.243Z,9.75
2022-08-17T09:53:44.577Z,7.82
2022-08-17T09:56:24.165Z,9.60
2022-08-17T09:59:05.642Z,8.70
2022-08-17T10:02:19.955Z,8.18
2022-08-17T10:05:25.869Z,8.35
2022-08-17T10:08:27.551Z,5.75
2022-08-17T10:11:19.694Z,6.15
2022-08-17T10:13:56.313Z,6.82
2022-08-17T10:16:40.776Z,5.00
2022-08-17T10:19:09.991Z,7.60
2022-08-17T10:22:01.074Z,6.38
2022-08-17T10:25:23.538Z,5.07
2022-08-17T10:27:56.593Z,8.18
2022-08-17T10:30:26.723Z,7.93
2022-08-17T10:32:57.588Z,6.55
2022-08-17T10:35:34.036Z,5.13
2022-08-17T10:38:25.566Z,4.68
2022-08-17T10:41:03.950Z,5.80
2022-08-17T10:44:36.594Z,6.50
2022-08-17T10:46:56.255Z,4.70
2022-08-17T10:49:29.326Z,4.57
2022-08-17T10:52:02.656Z,4.65
2022-08-17T10:54:45.421Z,6.90
2022-08-17T10:59:56.309Z,4.53
2022-08-17T11:02:28.332Z,5.18
2022-08-17T11:05:03.615Z,8.88
2022-08-17T11:07:49.388Z,6.05
2022-08-17T11:10:31.138Z,4.45
2022-08-17T11:13:07.000Z,7.43
2022-08-17T11:16:08.144Z,6.55
2022-08-17T11:18:53.494Z,6.13
2022-08-17T11:21:31.441Z,5.60
2022-08-17T11:24:20.964Z,7.72
2022-08-17T11:27:12.118Z,5.55
2022-08-17T11:30:02.730Z,6.85
2022-08-17T11:32:48.669Z,12.02
2022-08-17T11:35:22.704Z,6.85
2022-08-17T11:38:16.272Z,4.55
2022-08-17T11:41:11.145Z,7.05
2022-08-17T11:44:10.515Z,5.15
2022-08-17T11:47:13.431Z,5.20
2022-08-17T11:50:00.414Z,7.40
2022-08-17T11:52:46.076Z,4.70
2022-08-17T11:55:44.926Z,8.75
2022-08-17T11:58:29.619Z,7.60
2022-08-17T12:01:01.066Z,4.03
2022-08-17T12:03:31.681Z,6.32
2022-08-17T12:06:05.832Z,4.63
2022-08-17T12:08:34.194Z,5.82
2022-08-17T12:11:08.673Z,7.72
2022-08-17T12:13:46.575Z,4.68
2022-08-17T12:16:16.664Z,7.57
2022-08-17T12:18:50.490Z,4.72
2022-08-17T12:21:28.640Z,6.10
2022-08-17T12:24:37.248Z,5.22
2022-08-17T12:27:06.586Z,4.55
2022-08-17T12:29:38.801Z,5.53
2022-08-17T12:32:07.057Z,5.07
2022-08-17T12:34:41.147Z,4.47
2022-08-17T12:37:15.826Z,7.00
2022-08-17T12:40:01.676Z,5.80
2022-08-17T12:42:36.300Z,5.57
2022-08-17T12:45:07.487Z,4.90
2022-08-17T12:47:37.365Z,5.00
2022-08-17T12:50:28.833Z,5.20
2022-08-17T12:52:59.737Z,8.52
2022-08-17T12:55:32.474Z,5.15
2022-08-17T12:58:02.013Z,5.82
2022-08-17T13:00:33.187Z,5.47
2022-08-17T13:03:07.667Z,4.70
2022-08-17T13:05:54.448Z,5.75
2022-08-17T13:08:26.955Z,6.63
2022-08-17T13:11:02.484Z,5.30
2022-08-17T13:13:33.241Z,5.43
2022-08-17T13:16:03.486Z,6.65
2022-08-17T13:18:47.272Z,4.93
2022-08-17T13:21:30.308Z,5.68
2022-08-17T13:24:02.843Z,7.05
2022-08-17T13:26:38.322Z,5.75
2022-08-17T13:29:23.917Z,6.80
2022-08-17T13:32:14.249Z,9.35
2022-08-17T13:35:12.921Z,12.85
2022-08-17T13:37:38.176Z,8.93
2022-08-17T13:40:10.292Z,10.48
2022-08-17T13:42:50.332Z,9.68
2022-08-17T13:48:27.145Z,5.57
2022-08-17T13:50:56.360Z,9.32
2022-08-17T13:53:31.345Z,6.65
2022-08-17T13:56:33.320Z,8.48
2022-08-17T13:59:00.231Z,8.02
2022-08-17T14:01:53.655Z,6.40
2022-08-17T14:04:27.755Z,7.22
2022-08-17T14:07:01.351Z,7.28
2022-08-17T14:09:37.546Z,7.95
2022-08-17T14:12:10.677Z,9.73
2022-08-17T14:14:37.762Z,4.80
2022-08-17T14:17:04.405Z,5.35
2022-08-17T14:19:30.902Z,9.07
2022-08-17T14:22:00.446Z,6.93
2022-08-17T14:24:30.944Z,6.57
2022-08-17T14:26:59.464Z,6.38
2022-08-17T14:29:28.847Z,4.75
2022-08-17T14:31:57.012Z,8.00
2022-08-17T14:34:24.379Z,8.10
2022-08-17T14:36:51.746Z,6.78
2022-08-17T14:39:20.220Z,5.60
2022-08-17T14:41:47.188Z,5.40
2022-08-17T14:44:13.802Z,6.40
2022-08-17T14:46:42.110Z,5.53
2022-08-17T14:49:13.270Z,5.30
2022-08-17T14:51:43.627Z,5.43
2022-08-17T14:54:33.370Z,6.60
2022-08-17T14:57:17.722Z,5.93
2022-08-17T14:59:54.942Z,4.57
2022-08-17T15:02:30.433Z,4.50
2022-08-17T15:05:01.969Z,6.20
2022-08-17T15:07:30.842Z,8.95
2022-08-17T15:10:00.636Z,7.00
2022-08-17T15:12:32.337Z,8.15
2022-08-17T15:15:00.992Z,8.30
2022-08-17T15:17:43.991Z,7.25
2022-08-17T15:20:18.725Z,7.53
2022-08-17T15:22:46.866Z,9.98
2022-08-17T15:25:14.068Z,6.03
2022-08-17T15:27:40.825Z,6.53
2022-08-17T15:30:08.858Z,7.68
2022-08-17T15:32:38.311Z,5.85
2022-08-17T15:35:06.441Z,4.78
2022-08-17T15:37:33.399Z,5.78
2022-08-17T15:40:01.140Z,8.05
2022-08-17T15:42:29.212Z,4.63
2022-08-17T15:44:55.734Z,9.20
2022-08-17T15:47:23.285Z,5.20
2022-08-17T15:49:50.726Z,6.07
2022-08-17T15:52:24.611Z,11.70
2022-08-17T15:54:58.774Z,4.45
2022-08-17T15:57:27.220Z,6.60
2022-08-17T15:59:58.772Z,4.80
2022-08-17T16:03:14.118Z,6.17
2022-08-17T16:05:24.218Z,6.75
2022-08-17T16:07:52.232Z,7.13
2022-08-17T16:10:19.580Z,7.72
2022-08-17T16:12:49.574Z,8.07
2022-08-17T16:15:17.771Z,7.05
2022-08-17T16:17:44.348Z,5.45
2022-08-17T16:20:20.161Z,5.60
2022-08-17T16:22:48.640Z,7.32
2022-08-17T16:25:19.440Z,12.05
2022-08-17T16:27:48.307Z,9.48
2022-08-17T16:30:17.570Z,7.18
2022-08-17T16:32:46.338Z,7.15
2022-08-17T16:35:18.159Z,10.02
2022-08-17T16:37:45.430Z,5.70
2022-08-17T16:40:14.751Z,8.07
2022-08-17T16:42:42.831Z,8.02
2022-08-17T16:45:16.801Z,6.53
2022-08-17T16:47:44.183Z,11.82
2022-08-17T16:50:13.436Z,8.85
2022-08-17T16:52:40.731Z,10.70
2022-08-17T16:55:09.579Z,33.65
2022-08-17T16:57:47.618Z,8.38
2022-08-17T17:00:20.317Z,9.10
2022-08-17T17:02:48.223Z,7.40
2022-08-17T17:05:40.940Z,8.77
2022-08-17T17:08:12.918Z,10.93
2022-08-17T17:10:47.461Z,10.67
2022-08-17T17:13:32.319Z,10.13
2022-08-17T17:16:05.031Z,8.30
2022-08-17T17:18:49.547Z,9.70
2022-08-17T17:21:24.405Z,11.73
2022-08-17T17:24:02.517Z,9.20
2022-08-17T17:26:50.105Z,10.35
2022-08-17T17:29:48.354Z,13.98
2022-08-17T17:32:40.590Z,13.57
2022-08-17T17:35:15.498Z,9.98
2022-08-17T17:37:45.183Z,10.80
2022-08-17T17:40:23.401Z,10.27
2022-08-17T17:42:55.361Z,7.68
2022-08-17T17:45:42.514Z,12.20
2022-08-17T17:48:09.075Z,7.72
2022-08-17T17:50:42.337Z,10.57
2022-08-17T17:53:18.994Z,6.22
2022-08-17T17:56:43.687Z,7.00
2022-08-17T17:59:29.210Z,12.68
2022-08-17T18:02:37.249Z,10.65
2022-08-17T18:05:16.853Z,9.43
2022-08-17T18:08:34.193Z,7.78
2022-08-17T18:11:26.693Z,13.27
2022-08-17T18:14:05.946Z,14.15
2022-08-17T18:16:34.935Z,14.70
2022-08-17T18:19:01.487Z,10.93
2022-08-17T18:21:43.831Z,11.25
2022-08-17T18:24:11.016Z,10.65
2022-08-17T18:26:42.087Z,15.68
2022-08-17T18:29:23.107Z,9.88
2022-08-17T18:32:19.938Z,6.40
2022-08-17T18:34:49.338Z,8.90
2022-08-17T18:37:40.815Z,12.63
2022-08-17T18:40:16.478Z,8.35
2022-08-17T18:42:46.375Z,6.05
2022-08-17T18:45:13.671Z,9.65
2022-08-17T18:47:54.673Z,7.40
2022-08-17T18:50:28.679Z,14.10
2022-08-17T18:53:26.487Z,7.80
2022-08-17T18:56:22.967Z,7.93
2022-08-17T18:59:16.791Z,10.98
2022-08-17T19:02:16.059Z,12.73
2022-08-17T19:05:04.476Z,17.23
2022-08-17T19:07:46.618Z,9.52
2022-08-17T19:10:30.554Z,9.52
2022-08-17T19:13:11.339Z,10.50
2022-08-17T19:16:14.764Z,14.23
2022-08-17T19:18:52.097Z,6.50
2022-08-17T19:21:23.456Z,10.90
2022-08-17T19:24:19.454Z,9.43
2022-08-17T19:26:56.337Z,8.15
2022-08-17T19:29:40.203Z,10.27
2022-08-17T19:32:08.688Z,10.18
2022-08-17T19:34:38.025Z,9.20
2022-08-17T19:37:29.240Z,12.90
2022-08-17T19:40:24.523Z,10.82
2022-08-17T19:43:02.791Z,14.18
2022-08-17T19:45:49.514Z,10.10
2022-08-17T19:48:40.721Z,12.65
2022-08-17T19:51:13.366Z,16.40
2022-08-17T19:54:04.848Z,13.30
2022-08-17T19:56:32.134Z,9.77
2022-08-17T19:59:18.854Z,15.88
2022-08-17T20:02:15.277Z,11.90
2022-08-17T20:04:45.058Z,19.10
2022-08-17T20:07:30.138Z,20.52
2022-08-17T20:10:04.430Z,11.98
2022-08-17T20:12:39.648Z,8.57
2022-08-17T20:15:13.412Z,10.00
2022-08-17T20:17:43.209Z,11.13
2022-08-17T20:20:57.053Z,9.52
2022-08-17T20:23:42.472Z,8.75
2022-08-17T20:26:23.608Z,10.55
2022-08-17T20:29:08.661Z,10.65
2022-08-17T20:31:47.558Z,10.02
2022-08-17T20:34:33.764Z,8.73
2022-08-17T20:37:08.565Z,12.27
2022-08-17T20:39:44.918Z,16.75
2022-08-17T20:42:20.641Z,11.75
2022-08-17T20:44:53.447Z,10.57
2022-08-17T20:47:32.181Z,8.98
2022-08-17T20:50:29.576Z,7.22
2022-08-17T20:53:02.645Z,10.32
2022-08-17T20:55:51.177Z,16.77
2022-08-17T20:58:29.917Z,11.88
2022-08-17T21:00:57.763Z,10.65
2022-08-17T21:03:24.428Z,12.35
2022-08-17T21:06:11.091Z,11.75
2022-08-17T21:08:53.303Z,13.95
2022-08-17T21:11:57.221Z,17.80
2022-08-17T21:14:32.753Z,19.83
2022-08-17T21:17:17.714Z,17.42
2022-08-17T21:20:13.286Z,20.27
2022-08-17T21:22:46.897Z,12.68
2022-08-17T21:25:28.349Z,11.02
2022-08-17T21:28:30.029Z,14.68
2022-08-17T21:31:08.314Z,12.40
2022-08-17T21:33:38.560Z,13.45
2022-08-17T21:36:17.050Z,10.82
2022-08-17T21:38:55.682Z,12.23
2022-08-17T21:41:34.213Z,12.57
2022-08-17T21:44:35.341Z,11.80
2022-08-17T21:47:24.587Z,11.40
2022-08-17T21:49:53.009Z,15.05
2022-08-17T21:52:23.279Z,10.85
2022-08-17T21:54:57.278Z,10.10
2022-08-17T21:57:30.075Z,11.43
2022-08-17T21:59:59.743Z,11.80
2022-08-17T22:02:35.233Z,12.75
2022-08-17T22:05:06.658Z,15.73
2022-08-17T22:07:49.790Z,13.73
2022-08-17T22:10:32.625Z,12.60
2022-08-17T22:13:17.343Z,14.68
2022-08-17T22:15:50.647Z,12.20
2022-08-17T22:18:26.935Z,12.40
2022-08-17T22:20:57.232Z,11.82
2022-08-17T22:23:48.206Z,12.38
2022-08-17T22:26:18.746Z,11.52
2022-08-17T22:28:48.861Z,15.25
2022-08-17T22:31:21.715Z,11.00
2022-08-17T22:34:07.594Z,8.70
2022-08-17T22:36:39.012Z,12.43
2022-08-17T22:39:08.531Z,10.77
2022-08-17T22:41:41.143Z,12.05
2022-08-17T22:44:23.069Z,11.13
2022-08-17T22:46:59.419Z,10.15
2022-08-17T22:49:29.238Z,10.30
2022-08-17T22:52:23.350Z,10.50
2022-08-17T22:55:35.457Z,10.88
2022-08-17T22:58:27.795Z,10.75
2022-08-17T23:00:54.652Z,11.18
2022-08-17T23:03:26.216Z,11.70
2022-08-17T23:06:11.072Z,11.82
2022-08-17T23:08:54.998Z,11.63
2022-08-17T23:11:42.960Z,12.23
2022-08-17T23:14:15.755Z,11.02
2022-08-17T23:16:43.018Z,11.80
2022-08-17T23:19:15.309Z,12.57
2022-08-17T23:21:45.107Z,14.88
2022-08-17T23:24:22.697Z,14.25
2022-08-17T23:26:49.631Z,13.32
2022-08-17T23:29:16.228Z,16.13
2022-08-17T23:31:42.866Z,11.13
2022-08-17T23:34:12.749Z,10.80
2022-08-17T23:36:39.303Z,14.63
2022-08-17T23:39:07.140Z,11.10
2022-08-17T23:41:38.382Z,10.38
2022-08-17T23:44:06.385Z,11.10
2022-08-17T23:46:34.368Z,11.80
2022-08-17T23:49:01.073Z,12.25
2022-08-17T23:51:30.780Z,15.50
2022-08-17T23:54:07.205Z,12.48
2022-08-17T23:56:41.480Z,15.65
